sensor_id;sensor_type;location;lat;lon;timestamp;pressure;altitude;pressure_sealevel;temperature;humidity
37202;BME280;37799;52.390;6.136;2022-07-06T00:01:43;102456.47;;;13.81;100.00
37202;BME280;37799;52.390;6.136;2022-07-06T00:04:09;102454.81;;;13.75;100.00
37202;BME280;37799;52.390;6.136;2022-07-06T00:06:34;102457.56;;;13.63;100.00
37202;BME280;37799;52.390;6.136;2022-07-06T00:08:59;102452.53;;;13.49;100.00
37202;BME280;37799;52.390;6.136;2022-07-06T00:11:25;102459.63;;;13.35;100.00
37202;BME280;37799;52.390;6.136;2022-07-06T00:13:51;102457.19;;;13.23;100.00
37202;BME280;37799;52.390;6.136;2022-07-06T00:16:17;102459.91;;;13.09;100.00
37202;BME280;37799;52.390;6.136;2022-07-06T00:18:42;102459.06;;;13.06;100.00
37202;BME280;37799;52.390;6.136;2022-07-06T00:21:08;102455.66;;;13.00;100.00
37202;BME280;37799;52.390;6.136;2022-07-06T00:23:33;102459.22;;;12.89;100.00
37202;BME280;37799;52.390;6.136;2022-07-06T00:25:59;102453.16;;;12.88;100.00
37202;BME280;37799;52.390;6.136;2022-07-06T00:28:24;102458.34;;;12.88;100.00
37202;BME280;37799;52.390;6.136;2022-07-06T00:30:49;102457.50;;;12.89;100.00
37202;BME280;37799;52.390;6.136;2022-07-06T00:33:15;102453.13;;;12.94;100.00
37202;BME280;37799;52.390;6.136;2022-07-06T00:35:40;102458.22;;;13.04;100.00
37202;BME280;37799;52.390;6.136;2022-07-06T00:38:05;102457.34;;;13.05;100.00
37202;BME280;37799;52.390;6.136;2022-07-06T00:40:31;102459.97;;;13.05;100.00
37202;BME280;37799;52.390;6.136;2022-07-06T00:42:57;102463.41;;;13.07;100.00
37202;BME280;37799;52.390;6.136;2022-07-06T00:45:22;102462.44;;;13.14;100.00
37202;BME280;37799;52.390;6.136;2022-07-06T00:47:47;102463.31;;;13.16;100.00
37202;BME280;37799;52.390;6.136;2022-07-06T00:50:14;102466.75;;;13.18;100.00
37202;BME280;37799;52.390;6.136;2022-07-06T00:52:41;102459.75;;;13.24;100.00
37202;BME280;37799;52.390;6.136;2022-07-06T00:55:07;102460.63;;;13.25;100.00
37202;BME280;37799;52.390;6.136;2022-07-06T00:57:34;102463.22;;;13.25;100.00
37202;BME280;37799;52.390;6.136;2022-07-06T00:59:59;102463.16;;;13.31;100.00
37202;BME280;37799;52.390;6.136;2022-07-06T01:02:24;102470.06;;;13.35;100.00
37202;BME280;37799;52.390;6.136;2022-07-06T01:04:50;102474.31;;;13.39;100.00
37202;BME280;37799;52.390;6.136;2022-07-06T01:07:15;102468.25;;;13.40;100.00
37202;BME280;37799;52.390;6.136;2022-07-06T01:09:41;102468.22;;;13.43;100.00
37202;BME280;37799;52.390;6.136;2022-07-06T01:12:07;102470.78;;;13.48;100.00
37202;BME280;37799;52.390;6.136;2022-07-06T01:14:32;102471.59;;;13.50;100.00
37202;BME280;37799;52.390;6.136;2022-07-06T01:16:58;102467.25;;;13.50;100.00
37202;BME280;37799;52.390;6.136;2022-07-06T01:19:23;102469.09;;;13.44;100.00
37202;BME280;37799;52.390;6.136;2022-07-06T01:21:48;102469.91;;;13.47;100.00
37202;BME280;37799;52.390;6.136;2022-07-06T01:24:13;102469.03;;;13.47;100.00
37202;BME280;37799;52.390;6.136;2022-07-06T01:26:39;102458.69;;;13.41;100.00
37202;BME280;37799;52.390;6.136;2022-07-06T01:29:04;102457.88;;;13.37;100.00
37202;BME280;37799;52.390;6.136;2022-07-06T01:31:29;102463.13;;;13.34;100.00
37202;BME280;37799;52.390;6.136;2022-07-06T01:33:56;102450.13;;;13.33;100.00
37202;BME280;37799;52.390;6.136;2022-07-06T01:36:23;102447.63;;;13.25;100.00
37202;BME280;37799;52.390;6.136;2022-07-06T01:38:52;102449.31;;;13.29;100.00
37202;BME280;37799;52.390;6.136;2022-07-06T01:41:19;102448.41;;;13.33;100.00
37202;BME280;37799;52.390;6.136;2022-07-06T01:43:45;102450.91;;;13.42;100.00
37202;BME280;37799;52.390;6.136;2022-07-06T01:46:11;102447.41;;;13.43;100.00
37202;BME280;37799;52.390;6.136;2022-07-06T01:48:36;102446.50;;;13.47;100.00
37202;BME280;37799;52.390;6.136;2022-07-06T01:51:03;102462.09;;;13.49;100.00
37202;BME280;37799;52.390;6.136;2022-07-06T01:53:28;102457.72;;;13.49;100.00
37202;BME280;37799;52.390;6.136;2022-07-06T01:55:54;102455.06;;;13.54;100.00
37202;BME280;37799;52.390;6.136;2022-07-06T01:58:19;102454.16;;;13.60;100.00
37202;BME280;37799;52.390;6.136;2022-07-06T02:00:44;102454.16;;;13.60;100.00
37202;BME280;37799;52.390;6.136;2022-07-06T02:03:09;102455.09;;;13.52;100.00
37202;BME280;37799;52.390;6.136;2022-07-06T02:05:35;102452.53;;;13.49;100.00
37202;BME280;37799;52.390;6.136;2022-07-06T02:08:00;102452.56;;;13.46;100.00
37202;BME280;37799;52.390;6.136;2022-07-06T02:10:25;102453.50;;;13.42;100.00
37202;BME280;37799;52.390;6.136;2022-07-06T02:12:50;102438.75;;;13.40;100.00
37202;BME280;37799;52.390;6.136;2022-07-06T02:15:16;102449.13;;;13.44;100.00
37202;BME280;37799;52.390;6.136;2022-07-06T02:17:41;102439.59;;;13.43;100.00
37202;BME280;37799;52.390;6.136;2022-07-06T02:20:07;102439.59;;;13.45;100.00
37202;BME280;37799;52.390;6.136;2022-07-06T02:22:33;102440.44;;;13.45;100.00
37202;BME280;37799;52.390;6.136;2022-07-06T02:24:58;102445.59;;;13.48;100.00
37202;BME280;37799;52.390;6.136;2022-07-06T02:27:23;102438.72;;;13.44;100.00
37202;BME280;37799;52.390;6.136;2022-07-06T02:29:50;102443.84;;;13.50;100.00
37202;BME280;37799;52.390;6.136;2022-07-06T02:32:15;102438.59;;;13.53;100.00
37202;BME280;37799;52.390;6.136;2022-07-06T02:34:40;102437.72;;;13.53;100.00
37202;BME280;37799;52.390;6.136;2022-07-06T02:37:06;102442.09;;;13.51;100.00
37202;BME280;37799;52.390;6.136;2022-07-06T02:39:31;102436.88;;;13.52;100.00
37202;BME280;37799;52.390;6.136;2022-07-06T02:41:56;102447.31;;;13.49;100.00
37202;BME280;37799;52.390;6.136;2022-07-06T02:44:21;102446.41;;;13.53;100.00
37202;BME280;37799;52.390;6.136;2022-07-06T02:46:47;102451.59;;;13.53;100.00
37202;BME280;37799;52.390;6.136;2022-07-06T02:49:12;102455.91;;;13.57;100.00
37202;BME280;37799;52.390;6.136;2022-07-06T02:51:37;102454.16;;;13.60;100.00
37202;BME280;37799;52.390;6.136;2022-07-06T02:54:03;102451.56;;;13.58;100.00
37202;BME280;37799;52.390;6.136;2022-07-06T02:56:28;102454.97;;;13.63;100.00
37202;BME280;37799;52.390;6.136;2022-07-06T02:58:54;102446.25;;;13.67;100.00
37202;BME280;37799;52.390;6.136;2022-07-06T03:01:19;102447.97;;;13.68;100.00
37202;BME280;37799;52.390;6.136;2022-07-06T03:03:44;102451.38;;;13.72;100.00
37202;BME280;37799;52.390;6.136;2022-07-06T03:06:09;102449.59;;;13.75;100.00
37202;BME280;37799;52.390;6.136;2022-07-06T03:08:35;102459.09;;;13.78;100.00
37202;BME280;37799;52.390;6.136;2022-07-06T03:11:00;102449.59;;;13.75;100.00
37202;BME280;37799;52.390;6.136;2022-07-06T03:13:26;102448.66;;;13.81;100.00
37202;BME280;37799;52.390;6.136;2022-07-06T03:15:52;102455.59;;;13.79;100.00
37202;BME280;37799;52.390;6.136;2022-07-06T03:18:17;102459.03;;;13.84;100.00
37202;BME280;37799;52.390;6.136;2022-07-06T03:20:43;102459.06;;;13.79;100.00
37202;BME280;37799;52.390;6.136;2022-07-06T03:23:08;102457.31;;;13.80;100.00
37202;BME280;37799;52.390;6.136;2022-07-06T03:25:33;102459.97;;;13.77;100.00
37202;BME280;37799;52.390;6.136;2022-07-06T03:27:58;102456.47;;;13.79;100.00
37202;BME280;37799;52.390;6.136;2022-07-06T03:30:24;102449.69;;;13.66;100.00
37202;BME280;37799;52.390;6.136;2022-07-06T03:32:49;102461.13;;;13.57;100.00
37202;BME280;37799;52.390;6.136;2022-07-06T03:35:14;102462.97;;;13.48;100.00
37202;BME280;37799;52.390;6.136;2022-07-06T03:37:40;102461.34;;;13.38;100.00
37202;BME280;37799;52.390;6.136;2022-07-06T03:40:05;102467.53;;;13.29;100.00
37202;BME280;37799;52.390;6.136;2022-07-06T03:42:31;102463.16;;;13.31;100.00
37202;BME280;37799;52.390;6.136;2022-07-06T03:44:56;102460.59;;;13.30;100.00
37202;BME280;37799;52.390;6.136;2022-07-06T03:47:21;102469.16;;;13.36;100.00
37202;BME280;37799;52.390;6.136;2022-07-06T03:49:47;102468.31;;;13.36;100.00
37202;BME280;37799;52.390;6.136;2022-07-06T03:52:12;102467.44;;;13.37;100.00
37202;BME280;37799;52.390;6.136;2022-07-06T03:54:37;102468.38;;;13.31;100.00
37202;BME280;37799;52.390;6.136;2022-07-06T03:57:03;102475.31;;;13.27;100.00
37202;BME280;37799;52.390;6.136;2022-07-06T03:59:28;102485.75;;;13.26;100.00
37202;BME280;37799;52.390;6.136;2022-07-06T04:01:53;102486.72;;;13.19;100.00
37202;BME280;37799;52.390;6.136;2022-07-06T04:04:19;102473.69;;;13.14;100.00
37202;BME280;37799;52.390;6.136;2022-07-06T04:06:44;102476.31;;;13.13;100.00
37202;BME280;37799;52.390;6.136;2022-07-06T04:09:09;102466.78;;;13.12;100.00
37202;BME280;37799;52.390;6.136;2022-07-06T04:11:35;102466.75;;;13.15;100.00
37202;BME280;37799;52.390;6.136;2022-07-06T04:14:00;102462.56;;;13.05;100.00
37202;BME280;37799;52.390;6.136;2022-07-06T04:16:25;102472.06;;;13.06;100.00
37202;BME280;37799;52.390;6.136;2022-07-06T04:18:51;102468.66;;;13.00;100.00
37202;BME280;37799;52.390;6.136;2022-07-06T04:21:16;102460.16;;;12.83;100.00
37202;BME280;37799;52.390;6.136;2022-07-06T04:23:41;102472.25;;;12.86;100.00
37202;BME280;37799;52.390;6.136;2022-07-06T04:26:06;102465.31;;;12.86;100.00
37202;BME280;37799;52.390;6.136;2022-07-06T04:28:32;102469.63;;;12.87;100.00
37202;BME280;37799;52.390;6.136;2022-07-06T04:30:57;102463.56;;;12.91;100.00
37202;BME280;37799;52.390;6.136;2022-07-06T04:33:22;102466.19;;;12.90;100.00
37202;BME280;37799;52.390;6.136;2022-07-06T04:35:47;102466.13;;;12.93;100.00
37202;BME280;37799;52.390;6.136;2022-07-06T04:38:13;102468.66;;;13.00;100.00
37202;BME280;37799;52.390;6.136;2022-07-06T04:40:38;102471.19;;;13.07;100.00
37202;BME280;37799;52.390;6.136;2022-07-06T04:43:04;102473.78;;;13.08;100.00
37202;BME280;37799;52.390;6.136;2022-07-06T04:45:29;102473.88;;;12.99;100.00
37202;BME280;37799;52.390;6.136;2022-07-06T04:47:55;102475.56;;;13.03;100.00
37202;BME280;37799;52.390;6.136;2022-07-06T04:50:20;102472.09;;;13.04;100.00
37202;BME280;37799;52.390;6.136;2022-07-06T04:52:45;102475.53;;;13.06;100.00
37202;BME280;37799;52.390;6.136;2022-07-06T04:55:11;102476.34;;;13.10;100.00
37202;BME280;37799;52.390;6.136;2022-07-06T04:57:36;102471.13;;;13.13;100.00
37202;BME280;37799;52.390;6.136;2022-07-06T05:00:03;102474.56;;;13.15;100.00
37202;BME280;37799;52.390;6.136;2022-07-06T05:02:28;102475.44;;;13.17;100.00
37202;BME280;37799;52.390;6.136;2022-07-06T05:04:54;102477.13;;;13.22;100.00
37202;BME280;37799;52.390;6.136;2022-07-06T05:07:19;102478.81;;;13.25;100.00
37202;BME280;37799;52.390;6.136;2022-07-06T05:09:45;102476.25;;;13.23;100.00
37202;BME280;37799;52.390;6.136;2022-07-06T05:12:10;102476.28;;;13.20;100.00
37202;BME280;37799;52.390;6.136;2022-07-06T05:14:35;102484.97;;;13.16;100.00
37202;BME280;37799;52.390;6.136;2022-07-06T05:17:01;102484.97;;;13.18;100.00
37202;BME280;37799;52.390;6.136;2022-07-06T05:19:27;102488.41;;;13.23;100.00
37202;BME280;37799;52.390;6.136;2022-07-06T05:21:52;102489.19;;;13.28;100.00
37202;BME280;37799;52.390;6.136;2022-07-06T05:24:17;102483.09;;;13.34;100.00
37202;BME280;37799;52.390;6.136;2022-07-06T05:26:44;102488.22;;;13.41;100.00
37202;BME280;37799;52.390;6.136;2022-07-06T05:29:10;102494.13;;;13.52;100.00
37202;BME280;37799;52.390;6.136;2022-07-06T05:31:35;102488.72;;;13.71;100.00
37202;BME280;37799;52.390;6.136;2022-07-06T05:34:00;102493.66;;;13.89;100.00
37202;BME280;37799;52.390;6.136;2022-07-06T05:36:26;102491.75;;;14.03;100.00
37202;BME280;37799;52.390;6.136;2022-07-06T05:38:51;102492.22;;;14.30;100.00
37202;BME280;37799;52.390;6.136;2022-07-06T05:41:16;102496.63;;;15.29;100.00
37202;BME280;37799;52.390;6.136;2022-07-06T05:43:41;102489.91;;;16.04;100.00
37202;BME280;37799;52.390;6.136;2022-07-06T05:46:07;102497.53;;;17.19;100.00
37202;BME280;37799;52.390;6.136;2022-07-06T05:48:32;102502.84;;;18.35;100.00
37202;BME280;37799;52.390;6.136;2022-07-06T05:51:16;102504.00;;;19.56;100.00
37202;BME280;37799;52.390;6.136;2022-07-06T05:53:41;102504.56;;;20.31;100.00
37202;BME280;37799;52.390;6.136;2022-07-06T05:56:07;102511.84;;;21.09;100.00
37202;BME280;37799;52.390;6.136;2022-07-06T05:58:32;102511.31;;;21.21;100.00
37202;BME280;37799;52.390;6.136;2022-07-06T06:00:58;102524.47;;;21.21;98.71
37202;BME280;37799;52.390;6.136;2022-07-06T06:03:23;102522.19;;;21.13;94.67
37202;BME280;37799;52.390;6.136;2022-07-06T06:05:49;102515.00;;;21.17;97.99
37202;BME280;37799;52.390;6.136;2022-07-06T06:08:14;102520.91;;;21.22;96.95
37202;BME280;37799;52.390;6.136;2022-07-06T06:10:39;102521.31;;;21.54;97.21
37202;BME280;37799;52.390;6.136;2022-07-06T06:13:05;102526.47;;;21.75;92.68
37202;BME280;37799;52.390;6.136;2022-07-06T06:15:30;102529.09;;;21.94;94.08
37202;BME280;37799;52.390;6.136;2022-07-06T06:17:55;102525.78;;;22.63;91.39
37202;BME280;37799;52.390;6.136;2022-07-06T06:20:21;102522.97;;;22.31;86.40
37202;BME280;37799;52.390;6.136;2022-07-06T06:22:57;102530.88;;;21.94;86.88
37202;BME280;37799;52.390;6.136;2022-07-06T06:25:34;102531.81;;;21.14;93.56
37202;BME280;37799;52.390;6.136;2022-07-06T06:28:00;102533.13;;;20.40;92.70
37202;BME280;37799;52.390;6.136;2022-07-06T06:30:25;102531.41;;;19.72;98.92
37202;BME280;37799;52.390;6.136;2022-07-06T06:32:51;102539.91;;;19.05;100.00
37202;BME280;37799;52.390;6.136;2022-07-06T06:35:17;102536.94;;;18.62;100.00
37202;BME280;37799;52.390;6.136;2022-07-06T06:37:42;102535.84;;;18.14;100.00
37202;BME280;37799;52.390;6.136;2022-07-06T06:40:08;102529.78;;;17.84;100.00
37202;BME280;37799;52.390;6.136;2022-07-06T06:42:36;102524.97;;;17.67;100.00
37202;BME280;37799;52.390;6.136;2022-07-06T06:45:05;102525.97;;;17.63;100.00
37202;BME280;37799;52.390;6.136;2022-07-06T06:47:31;102535.41;;;17.38;100.00
37202;BME280;37799;52.390;6.136;2022-07-06T06:49:56;102538.16;;;17.33;100.00
37202;BME280;37799;52.390;6.136;2022-07-06T06:52:21;102527.31;;;17.47;100.00
37202;BME280;37799;52.390;6.136;2022-07-06T06:54:46;102530.03;;;18.33;100.00
37202;BME280;37799;52.390;6.136;2022-07-06T06:57:12;102532.22;;;18.99;100.00
37202;BME280;37799;52.390;6.136;2022-07-06T06:59:37;102541.59;;;19.58;100.00
37202;BME280;37799;52.390;6.136;2022-07-06T07:02:02;102540.34;;;20.58;100.00
37202;BME280;37799;52.390;6.136;2022-07-06T07:04:28;102546.06;;;21.31;94.96
37202;BME280;37799;52.390;6.136;2022-07-06T07:06:54;102539.03;;;22.08;91.35
37202;BME280;37799;52.390;6.136;2022-07-06T07:09:19;102547.91;;;22.60;83.59
37202;BME280;37799;52.390;6.136;2022-07-06T07:11:45;102550.84;;;22.90;80.59
37202;BME280;37799;52.390;6.136;2022-07-06T07:14:10;102552.84;;;23.03;79.78
37202;BME280;37799;52.390;6.136;2022-07-06T07:16:35;102553.31;;;23.28;78.06
37202;BME280;37799;52.390;6.136;2022-07-06T07:19:01;102559.31;;;23.65;79.49
37202;BME280;37799;52.390;6.136;2022-07-06T07:21:26;102548.38;;;24.35;73.94
37202;BME280;37799;52.390;6.136;2022-07-06T07:23:51;102551.00;;;25.11;70.37
37202;BME280;37799;52.390;6.136;2022-07-06T07:26:17;102546.94;;;25.63;67.70
37202;BME280;37799;52.390;6.136;2022-07-06T07:28:42;102540.78;;;25.91;61.20
37202;BME280;37799;52.390;6.136;2022-07-06T07:31:07;102550.78;;;26.14;58.90
37202;BME280;37799;52.390;6.136;2022-07-06T07:33:33;102553.97;;;25.49;57.96
37202;BME280;37799;52.390;6.136;2022-07-06T07:35:58;102547.84;;;24.29;59.04
37202;BME280;37799;52.390;6.136;2022-07-06T07:38:24;102550.03;;;22.71;63.75
37202;BME280;37799;52.390;6.136;2022-07-06T07:40:49;102550.06;;;20.99;71.83
37202;BME280;37799;52.390;6.136;2022-07-06T07:43:14;102546.81;;;20.04;77.21
37202;BME280;37799;52.390;6.136;2022-07-06T07:45:40;102556.78;;;19.48;82.06
37202;BME280;37799;52.390;6.136;2022-07-06T07:48:05;102548.41;;;19.12;89.07
37202;BME280;37799;52.390;6.136;2022-07-06T07:50:31;102544.72;;;18.93;93.47
37202;BME280;37799;52.390;6.136;2022-07-06T07:52:57;102545.47;;;18.96;93.04
37202;BME280;37799;52.390;6.136;2022-07-06T07:55:23;102543.09;;;19.38;86.89
37202;BME280;37799;52.390;6.136;2022-07-06T07:57:48;102549.94;;;19.92;85.14
37202;BME280;37799;52.390;6.136;2022-07-06T08:00:13;102542.34;;;20.94;77.43
37202;BME280;37799;52.390;6.136;2022-07-06T08:02:39;102546.41;;;22.00;70.27
37202;BME280;37799;52.390;6.136;2022-07-06T08:05:04;102546.31;;;22.75;65.19
37202;BME280;37799;52.390;6.136;2022-07-06T08:07:30;102550.09;;;23.06;62.37
37202;BME280;37799;52.390;6.136;2022-07-06T08:09:55;102546.81;;;22.83;61.87
37202;BME280;37799;52.390;6.136;2022-07-06T08:12:20;102541.28;;;21.97;63.20
37202;BME280;37799;52.390;6.136;2022-07-06T08:14:46;102536.44;;;21.50;65.44
37202;BME280;37799;52.390;6.136;2022-07-06T08:17:11;102537.69;;;21.01;70.49
37202;BME280;37799;52.390;6.136;2022-07-06T08:19:36;102539.84;;;20.49;71.78
37202;BME280;37799;52.390;6.136;2022-07-06T08:22:02;102539.63;;;19.86;75.56
37202;BME280;37799;52.390;6.136;2022-07-06T08:24:35;102544.44;;;19.75;77.62
37202;BME280;37799;52.390;6.136;2022-07-06T08:27:00;102549.06;;;19.43;75.89
37202;BME280;37799;52.390;6.136;2022-07-06T08:29:26;102544.94;;;19.36;78.54
37202;BME280;37799;52.390;6.136;2022-07-06T08:31:51;102545.06;;;19.33;80.97
37202;BME280;37799;52.390;6.136;2022-07-06T08:34:16;102541.41;;;19.37;78.72
37202;BME280;37799;52.390;6.136;2022-07-06T08:36:42;102545.94;;;20.04;77.08
37202;BME280;37799;52.390;6.136;2022-07-06T08:39:07;102540.91;;;20.87;66.14
37202;BME280;37799;52.390;6.136;2022-07-06T08:41:33;102540.38;;;21.40;62.89
37202;BME280;37799;52.390;6.136;2022-07-06T08:43:59;102544.56;;;21.64;63.03
37202;BME280;37799;52.390;6.136;2022-07-06T08:46:27;102552.69;;;21.78;61.67
37202;BME280;37799;52.390;6.136;2022-07-06T08:48:53;102550.00;;;21.80;63.61
37202;BME280;37799;52.390;6.136;2022-07-06T08:51:20;102548.22;;;21.41;62.58
37202;BME280;37799;52.390;6.136;2022-07-06T08:53:45;102545.84;;;21.35;65.63
37202;BME280;37799;52.390;6.136;2022-07-06T08:56:14;102542.88;;;21.23;63.97
37202;BME280;37799;52.390;6.136;2022-07-06T08:58:39;102540.72;;;21.12;63.39
37202;BME280;37799;52.390;6.136;2022-07-06T09:01:11;102544.97;;;21.14;59.21
37202;BME280;37799;52.390;6.136;2022-07-06T09:03:38;102532.88;;;21.70;60.09
37202;BME280;37799;52.390;6.136;2022-07-06T09:06:06;102537.44;;;22.76;52.78
37202;BME280;37799;52.390;6.136;2022-07-06T09:08:32;102537.34;;;23.47;51.44
37202;BME280;37799;52.390;6.136;2022-07-06T09:10:58;102536.56;;;23.78;51.41
37202;BME280;37799;52.390;6.136;2022-07-06T09:13:23;102536.16;;;24.01;53.10
37202;BME280;37799;52.390;6.136;2022-07-06T09:15:48;102531.75;;;23.69;52.06
37202;BME280;37799;52.390;6.136;2022-07-06T09:18:14;102548.00;;;23.28;50.46
37202;BME280;37799;52.390;6.136;2022-07-06T09:20:41;102537.59;;;22.92;50.67
37202;BME280;37799;52.390;6.136;2022-07-06T09:23:06;102540.78;;;22.62;53.60
37202;BME280;37799;52.390;6.136;2022-07-06T09:25:32;102538.97;;;22.10;57.38
37202;BME280;37799;52.390;6.136;2022-07-06T09:27:58;102547.38;;;21.60;56.92
37202;BME280;37799;52.390;6.136;2022-07-06T09:30:25;102547.91;;;21.87;54.07
37202;BME280;37799;52.390;6.136;2022-07-06T09:32:53;102550.81;;;22.73;57.92
37202;BME280;37799;52.390;6.136;2022-07-06T09:35:31;102542.94;;;23.08;54.88
37202;BME280;37799;52.390;6.136;2022-07-06T09:38:11;102546.00;;;23.16;51.26
37202;BME280;37799;52.390;6.136;2022-07-06T09:40:39;102547.72;;;22.82;49.68
37202;BME280;37799;52.390;6.136;2022-07-06T09:43:16;102542.13;;;22.35;51.94
37202;BME280;37799;52.390;6.136;2022-07-06T09:45:44;102547.25;;;22.00;55.17
37202;BME280;37799;52.390;6.136;2022-07-06T09:48:12;102552.28;;;21.88;58.35
37202;BME280;37799;52.390;6.136;2022-07-06T09:50:40;102547.41;;;21.78;56.37
37202;BME280;37799;52.390;6.136;2022-07-06T09:53:06;102557.22;;;21.56;61.41
37202;BME280;37799;52.390;6.136;2022-07-06T09:55:32;102551.91;;;21.95;60.93
37202;BME280;37799;52.390;6.136;2022-07-06T09:57:57;102552.00;;;22.31;55.69
37202;BME280;37799;52.390;6.136;2022-07-06T10:00:22;102549.50;;;22.28;58.00
37202;BME280;37799;52.390;6.136;2022-07-06T10:02:48;102561.66;;;22.50;54.96
37202;BME280;37799;52.390;6.136;2022-07-06T10:05:16;102560.84;;;22.12;54.58
37202;BME280;37799;52.390;6.136;2022-07-06T10:07:44;102552.41;;;22.41;56.73
37202;BME280;37799;52.390;6.136;2022-07-06T10:10:10;102548.34;;;22.70;56.31
37202;BME280;37799;52.390;6.136;2022-07-06T10:12:36;102545.34;;;22.95;49.92
37202;BME280;37799;52.390;6.136;2022-07-06T10:15:03;102556.69;;;23.47;52.15
37202;BME280;37799;52.390;6.136;2022-07-06T10:17:29;102553.72;;;23.53;49.11
37202;BME280;37799;52.390;6.136;2022-07-06T10:19:55;102551.44;;;24.44;50.77
37202;BME280;37799;52.390;6.136;2022-07-06T10:22:21;102561.16;;;24.89;51.92
37202;BME280;37799;52.390;6.136;2022-07-06T10:24:47;102552.75;;;24.96;48.76
37202;BME280;37799;52.390;6.136;2022-07-06T10:27:14;102552.84;;;24.95;44.32
37202;BME280;37799;52.390;6.136;2022-07-06T10:29:40;102549.28;;;25.10;44.89
37202;BME280;37799;52.390;6.136;2022-07-06T10:32:06;102547.16;;;25.31;46.87
37202;BME280;37799;52.390;6.136;2022-07-06T10:34:33;102545.31;;;26.03;43.93
37202;BME280;37799;52.390;6.136;2022-07-06T10:36:59;102545.47;;;25.73;43.81
37202;BME280;37799;52.390;6.136;2022-07-06T10:39:38;102549.81;;;25.59;46.14
37202;BME280;37799;52.390;6.136;2022-07-06T10:42:48;102549.16;;;25.56;46.86
37202;BME280;37799;52.390;6.136;2022-07-06T10:45:21;102539.28;;;25.29;45.17
37202;BME280;37799;52.390;6.136;2022-07-06T10:50:41;102545.81;;;25.24;44.68
37202;BME280;37799;52.390;6.136;2022-07-06T10:53:21;102539.72;;;26.07;44.69
37202;BME280;37799;52.390;6.136;2022-07-06T10:55:50;102533.44;;;26.50;41.30
37202;BME280;37799;52.390;6.136;2022-07-06T11:01:01;102536.66;;;26.67;39.94
37202;BME280;37799;52.390;6.136;2022-07-06T11:11:43;102533.69;;;25.48;45.92
37202;BME280;37799;52.390;6.136;2022-07-06T11:14:15;102535.03;;;25.55;45.58
37202;BME280;37799;52.390;6.136;2022-07-06T11:19:14;102529.91;;;26.22;42.44
37202;BME280;37799;52.390;6.136;2022-07-06T11:24:07;102532.50;;;27.16;39.72
37202;BME280;37799;52.390;6.136;2022-07-06T11:26:35;102525.66;;;27.50;38.30
37202;BME280;37799;52.390;6.136;2022-07-06T11:29:03;102526.38;;;26.36;41.03
37202;BME280;37799;52.390;6.136;2022-07-06T11:31:30;102529.06;;;25.80;42.10
37202;BME280;37799;52.390;6.136;2022-07-06T11:33:55;102523.56;;;25.55;42.91
37202;BME280;37799;52.390;6.136;2022-07-06T11:36:22;102518.94;;;25.16;42.07
37202;BME280;37799;52.390;6.136;2022-07-06T11:38:48;102512.47;;;25.48;41.45
37202;BME280;37799;52.390;6.136;2022-07-06T11:41:15;102515.41;;;25.58;38.84
37202;BME280;37799;52.390;6.136;2022-07-06T11:43:42;102501.34;;;25.99;42.01
37202;BME280;37799;52.390;6.136;2022-07-06T11:46:29;102503.00;;;26.14;41.88
37202;BME280;37799;52.390;6.136;2022-07-06T11:48:59;102494.75;;;25.63;40.63
37202;BME280;37799;52.390;6.136;2022-07-06T11:51:28;102493.69;;;26.21;40.64
37202;BME280;37799;52.390;6.136;2022-07-06T11:53:56;102495.53;;;26.60;37.98
37202;BME280;37799;52.390;6.136;2022-07-06T11:56:23;102493.44;;;27.29;37.41
37202;BME280;37799;52.390;6.136;2022-07-06T11:58:59;102483.22;;;27.85;35.96
37202;BME280;37799;52.390;6.136;2022-07-06T12:01:26;102485.28;;;27.69;36.08
37202;BME280;37799;52.390;6.136;2022-07-06T12:03:56;102476.19;;;27.84;35.54
37202;BME280;37799;52.390;6.136;2022-07-06T12:06:23;102472.91;;;28.04;35.34
37202;BME280;37799;52.390;6.136;2022-07-06T12:08:53;102478.16;;;28.30;37.69
37202;BME280;37799;52.390;6.136;2022-07-06T12:11:19;102473.44;;;28.33;37.24
37202;BME280;37799;52.390;6.136;2022-07-06T12:13:45;102461.84;;;27.98;34.53
37202;BME280;37799;52.390;6.136;2022-07-06T12:16:12;102462.38;;;27.79;35.12
37202;BME280;37799;52.390;6.136;2022-07-06T12:18:39;102477.94;;;27.72;34.30
37202;BME280;37799;52.390;6.136;2022-07-06T12:21:07;102469.63;;;27.77;36.00
37202;BME280;37799;52.390;6.136;2022-07-06T12:23:48;102467.50;;;28.65;40.00
37202;BME280;37799;52.390;6.136;2022-07-06T12:26:16;102466.34;;;28.45;33.39
37202;BME280;37799;52.390;6.136;2022-07-06T12:28:42;102469.44;;;28.28;32.60
37202;BME280;37799;52.390;6.136;2022-07-06T12:31:09;102450.94;;;28.13;33.36
37202;BME280;37799;52.390;6.136;2022-07-06T12:33:34;102457.44;;;27.85;33.58
37202;BME280;37799;52.390;6.136;2022-07-06T12:36:14;102457.06;;;28.03;33.65
37202;BME280;37799;52.390;6.136;2022-07-06T12:38:47;102452.66;;;28.26;36.21
37202;BME280;37799;52.390;6.136;2022-07-06T12:41:25;102463.41;;;28.48;34.46
37202;BME280;37799;52.390;6.136;2022-07-06T12:44:09;102460.41;;;27.94;33.75
37202;BME280;37799;52.390;6.136;2022-07-06T12:46:39;102457.94;;;27.67;35.18
37202;BME280;37799;52.390;6.136;2022-07-06T12:49:15;102464.84;;;27.69;36.48
37202;BME280;37799;52.390;6.136;2022-07-06T12:54:19;102460.34;;;27.33;33.55
37202;BME280;37799;52.390;6.136;2022-07-06T12:57:00;102449.91;;;27.30;36.54
37202;BME280;37799;52.390;6.136;2022-07-06T12:59:26;102445.47;;;27.18;37.87
37202;BME280;37799;52.390;6.136;2022-07-06T13:01:55;102451.00;;;27.27;36.01
37202;BME280;37799;52.390;6.136;2022-07-06T13:04:22;102446.75;;;27.25;36.20